sensor_id;sensor_type;location;lat;lon;timestamp;P1;durP1;ratioP1;P2;durP2;ratioP2
16115;SDS011;8162;47.104;15.432;2023-04-08T00:01:22;12.23;;;9.03;;
16115;SDS011;8162;47.104;15.432;2023-04-08T00:04:23;11.53;;;8.87;;
16115;SDS011;8162;47.104;15.432;2023-04-08T00:07:24;12.53;;;10.00;;
16115;SDS011;8162;47.104;15.432;2023-04-08T00:10:25;12.23;;;10.20;;
16115;SDS011;8162;47.104;15.432;2023-04-08T00:13:26;11.83;;;9.30;;
16115;SDS011;8162;47.104;15.432;2023-04-08T00:16:28;11.83;;;9.50;;
16115;SDS011;8162;47.104;15.432;2023-04-08T00:19:29;11.33;;;9.43;;
16115;SDS011;8162;47.104;15.432;2023-04-08T00:22:30;13.07;;;10.83;;
16115;SDS011;8162;47.104;15.432;2023-04-08T00:25:31;11.57;;;8.73;;
16115;SDS011;8162;47.104;15.432;2023-04-08T00:28:32;10.80;;;9.07;;
16115;SDS011;8162;47.104;15.432;2023-04-08T00:31:33;15.00;;;10.57;;
16115;SDS011;8162;47.104;15.432;2023-04-08T00:34:34;13.50;;;11.03;;
16115;SDS011;8162;47.104;15.432;2023-04-08T00:37:36;12.77;;;10.33;;
16115;SDS011;8162;47.104;15.432;2023-04-08T00:40:37;14.03;;;11.00;;
16115;SDS011;8162;47.104;15.432;2023-04-08T00:43:38;15.83;;;10.77;;
16115;SDS011;8162;47.104;15.432;2023-04-08T00:46:39;12.13;;;10.80;;
16115;SDS011;8162;47.104;15.432;2023-04-08T00:49:40;15.50;;;12.03;;
16115;SDS011;8162;47.104;15.432;2023-04-08T00:52:41;17.73;;;13.63;;
16115;SDS011;8162;47.104;15.432;2023-04-08T00:55:42;18.43;;;13.13;;
16115;SDS011;8162;47.104;15.432;2023-04-08T00:58:44;16.10;;;12.67;;
16115;SDS011;8162;47.104;15.432;2023-04-08T01:05:00;15.53;;;12.80;;
16115;SDS011;8162;47.104;15.432;2023-04-08T01:08:02;14.53;;;10.87;;
16115;SDS011;8162;47.104;15.432;2023-04-08T01:11:05;18.03;;;12.30;;
16115;SDS011;8162;47.104;15.432;2023-04-08T01:14:08;16.87;;;10.80;;
16115;SDS011;8162;47.104;15.432;2023-04-08T01:17:10;15.53;;;11.60;;
16115;SDS011;8162;47.104;15.432;2023-04-08T01:20:12;14.60;;;11.50;;
16115;SDS011;8162;47.104;15.432;2023-04-08T01:23:35;16.57;;;11.77;;
16115;SDS011;8162;47.104;15.432;2023-04-08T01:26:38;13.67;;;10.30;;
16115;SDS011;8162;47.104;15.432;2023-04-08T01:29:40;13.17;;;11.13;;
16115;SDS011;8162;47.104;15.432;2023-04-08T01:32:42;15.73;;;11.10;;
16115;SDS011;8162;47.104;15.432;2023-04-08T01:35:44;15.97;;;11.60;;
16115;SDS011;8162;47.104;15.432;2023-04-08T01:38:46;17.80;;;13.20;;
16115;SDS011;8162;47.104;15.432;2023-04-08T01:41:47;14.10;;;11.93;;
16115;SDS011;8162;47.104;15.432;2023-04-08T01:44:49;14.13;;;10.67;;
16115;SDS011;8162;47.104;15.432;2023-04-08T01:47:51;14.40;;;11.20;;
16115;SDS011;8162;47.104;15.432;2023-04-08T01:50:53;12.90;;;10.80;;
16115;SDS011;8162;47.104;15.432;2023-04-08T01:53:55;14.53;;;11.97;;
16115;SDS011;8162;47.104;15.432;2023-04-08T01:56:56;13.23;;;11.33;;
16115;SDS011;8162;47.104;15.432;2023-04-08T02:00:05;12.30;;;10.90;;
16115;SDS011;8162;47.104;15.432;2023-04-08T02:03:07;15.23;;;11.13;;
16115;SDS011;8162;47.104;15.432;2023-04-08T02:06:08;13.53;;;11.17;;
16115;SDS011;8162;47.104;15.432;2023-04-08T02:09:10;12.83;;;10.23;;
16115;SDS011;8162;47.104;15.432;2023-04-08T02:12:11;15.63;;;11.70;;
16115;SDS011;8162;47.104;15.432;2023-04-08T02:15:12;13.90;;;11.47;;
16115;SDS011;8162;47.104;15.432;2023-04-08T02:18:15;13.73;;;11.13;;
16115;SDS011;8162;47.104;15.432;2023-04-08T02:21:16;12.47;;;10.53;;
16115;SDS011;8162;47.104;15.432;2023-04-08T02:24:18;14.17;;;12.37;;
16115;SDS011;8162;47.104;15.432;2023-04-08T02:27:20;16.40;;;11.50;;
16115;SDS011;8162;47.104;15.432;2023-04-08T02:30:23;13.07;;;11.70;;
16115;SDS011;8162;47.104;15.432;2023-04-08T02:33:25;18.70;;;12.90;;
16115;SDS011;8162;47.104;15.432;2023-04-08T02:36:27;16.20;;;13.37;;
16115;SDS011;8162;47.104;15.432;2023-04-08T02:39:31;19.07;;;12.73;;
16115;SDS011;8162;47.104;15.432;2023-04-08T02:42:32;16.40;;;14.23;;
16115;SDS011;8162;47.104;15.432;2023-04-08T02:45:37;19.70;;;14.53;;
16115;SDS011;8162;47.104;15.432;2023-04-08T02:48:53;17.60;;;13.80;;
16115;SDS011;8162;47.104;15.432;2023-04-08T02:51:54;19.43;;;14.87;;
16115;SDS011;8162;47.104;15.432;2023-04-08T02:54:55;17.20;;;15.03;;
16115;SDS011;8162;47.104;15.432;2023-04-08T02:57:56;18.67;;;15.53;;
16115;SDS011;8162;47.104;15.432;2023-04-08T03:00:57;20.07;;;16.60;;
16115;SDS011;8162;47.104;15.432;2023-04-08T03:03:58;16.80;;;14.10;;
16115;SDS011;8162;47.104;15.432;2023-04-08T03:06:59;18.23;;;14.40;;
16115;SDS011;8162;47.104;15.432;2023-04-08T03:10:01;17.37;;;15.47;;
16115;SDS011;8162;47.104;15.432;2023-04-08T03:13:02;19.43;;;15.83;;
16115;SDS011;8162;47.104;15.432;2023-04-08T03:16:03;19.53;;;17.43;;
16115;SDS011;8162;47.104;15.432;2023-04-08T03:19:04;21.27;;;17.20;;
16115;SDS011;8162;47.104;15.432;2023-04-08T03:22:05;21.10;;;15.70;;
16115;SDS011;8162;47.104;15.432;2023-04-08T03:25:08;20.57;;;16.47;;
16115;SDS011;8162;47.104;15.432;2023-04-08T03:28:10;19.00;;;16.67;;
16115;SDS011;8162;47.104;15.432;2023-04-08T03:31:11;19.20;;;15.70;;
16115;SDS011;8162;47.104;15.432;2023-04-08T03:34:12;17.27;;;14.53;;
16115;SDS011;8162;47.104;15.432;2023-04-08T03:37:13;18.30;;;15.70;;
16115;SDS011;8162;47.104;15.432;2023-04-08T03:40:14;22.03;;;16.57;;
16115;SDS011;8162;47.104;15.432;2023-04-08T03:43:15;20.37;;;17.60;;
16115;SDS011;8162;47.104;15.432;2023-04-08T03:46:18;20.03;;;17.23;;
16115;SDS011;8162;47.104;15.432;2023-04-08T03:49:19;18.73;;;16.27;;
16115;SDS011;8162;47.104;15.432;2023-04-08T03:52:21;17.93;;;15.67;;
16115;SDS011;8162;47.104;15.432;2023-04-08T03:55:22;21.40;;;17.10;;
16115;SDS011;8162;47.104;15.432;2023-04-08T03:58:23;19.60;;;16.43;;
16115;SDS011;8162;47.104;15.432;2023-04-08T04:01:24;19.27;;;16.00;;
16115;SDS011;8162;47.104;15.432;2023-04-08T04:04:25;18.97;;;15.60;;
16115;SDS011;8162;47.104;15.432;2023-04-08T04:07:26;21.47;;;17.83;;
16115;SDS011;8162;47.104;15.432;2023-04-08T04:10:27;21.70;;;17.97;;
16115;SDS011;8162;47.104;15.432;2023-04-08T04:13:28;20.30;;;17.10;;
16115;SDS011;8162;47.104;15.432;2023-04-08T04:16:30;24.43;;;17.63;;
16115;SDS011;8162;47.104;15.432;2023-04-08T04:19:31;20.47;;;16.37;;
16115;SDS011;8162;47.104;15.432;2023-04-08T04:22:32;20.63;;;16.67;;
16115;SDS011;8162;47.104;15.432;2023-04-08T04:25:33;20.83;;;18.10;;
16115;SDS011;8162;47.104;15.432;2023-04-08T04:28:34;25.50;;;19.87;;
16115;SDS011;8162;47.104;15.432;2023-04-08T04:31:35;24.53;;;19.73;;
16115;SDS011;8162;47.104;15.432;2023-04-08T04:34:36;27.17;;;21.63;;
16115;SDS011;8162;47.104;15.432;2023-04-08T04:37:37;26.37;;;20.17;;
16115;SDS011;8162;47.104;15.432;2023-04-08T04:40:38;26.07;;;20.87;;
16115;SDS011;8162;47.104;15.432;2023-04-08T04:43:40;24.63;;;20.63;;
16115;SDS011;8162;47.104;15.432;2023-04-08T04:46:41;27.63;;;22.63;;
16115;SDS011;8162;47.104;15.432;2023-04-08T04:49:42;25.97;;;20.97;;
16115;SDS011;8162;47.104;15.432;2023-04-08T04:52:44;25.87;;;22.60;;
16115;SDS011;8162;47.104;15.432;2023-04-08T04:55:45;28.90;;;23.60;;
16115;SDS011;8162;47.104;15.432;2023-04-08T04:58:46;31.70;;;24.67;;
16115;SDS011;8162;47.104;15.432;2023-04-08T05:01:47;32.93;;;25.27;;
16115;SDS011;8162;47.104;15.432;2023-04-08T05:04:48;28.63;;;23.17;;
16115;SDS011;8162;47.104;15.432;2023-04-08T05:07:52;27.43;;;23.90;;
16115;SDS011;8162;47.104;15.432;2023-04-08T05:10:53;32.43;;;24.97;;
16115;SDS011;8162;47.104;15.432;2023-04-08T05:13:55;35.97;;;28.70;;
16115;SDS011;8162;47.104;15.432;2023-04-08T05:16:56;39.20;;;29.57;;
16115;SDS011;8162;47.104;15.432;2023-04-08T05:19:57;44.07;;;32.00;;
16115;SDS011;8162;47.104;15.432;2023-04-08T05:22:58;40.33;;;29.97;;
16115;SDS011;8162;47.104;15.432;2023-04-08T05:25:59;39.57;;;29.50;;
16115;SDS011;8162;47.104;15.432;2023-04-08T05:29:00;39.77;;;29.33;;
16115;SDS011;8162;47.104;15.432;2023-04-08T05:32:01;47.30;;;31.87;;
16115;SDS011;8162;47.104;15.432;2023-04-08T05:35:03;41.97;;;32.63;;
16115;SDS011;8162;47.104;15.432;2023-04-08T05:38:04;50.10;;;35.20;;
16115;SDS011;8162;47.104;15.432;2023-04-08T05:41:06;52.23;;;35.87;;
16115;SDS011;8162;47.104;15.432;2023-04-08T05:44:07;48.50;;;34.87;;
16115;SDS011;8162;47.104;15.432;2023-04-08T05:47:08;41.03;;;30.00;;
16115;SDS011;8162;47.104;15.432;2023-04-08T05:50:09;51.17;;;35.27;;
16115;SDS011;8162;47.104;15.432;2023-04-08T05:53:10;56.17;;;35.70;;
16115;SDS011;8162;47.104;15.432;2023-04-08T05:56:12;56.00;;;38.10;;
16115;SDS011;8162;47.104;15.432;2023-04-08T05:59:13;46.73;;;36.17;;
16115;SDS011;8162;47.104;15.432;2023-04-08T06:02:14;56.77;;;38.47;;
16115;SDS011;8162;47.104;15.432;2023-04-08T06:05:15;53.20;;;34.83;;
16115;SDS011;8162;47.104;15.432;2023-04-08T06:08:18;60.67;;;38.20;;
16115;SDS011;8162;47.104;15.432;2023-04-08T06:11:20;44.47;;;34.30;;
16115;SDS011;8162;47.104;15.432;2023-04-08T06:14:21;56.13;;;38.20;;
16115;SDS011;8162;47.104;15.432;2023-04-08T06:17:22;53.37;;;35.63;;
16115;SDS011;8162;47.104;15.432;2023-04-08T06:20:23;58.00;;;36.50;;
16115;SDS011;8162;47.104;15.432;2023-04-08T06:23:24;55.27;;;37.20;;
16115;SDS011;8162;47.104;15.432;2023-04-08T06:26:25;68.77;;;39.07;;
16115;SDS011;8162;47.104;15.432;2023-04-08T06:29:26;72.60;;;42.13;;
16115;SDS011;8162;47.104;15.432;2023-04-08T06:32:28;63.67;;;41.33;;
16115;SDS011;8162;47.104;15.432;2023-04-08T06:35:29;82.03;;;44.33;;
16115;SDS011;8162;47.104;15.432;2023-04-08T06:38:31;63.00;;;38.47;;
16115;SDS011;8162;47.104;15.432;2023-04-08T06:41:32;63.33;;;38.30;;
16115;SDS011;8162;47.104;15.432;2023-04-08T06:44:33;52.80;;;34.90;;
16115;SDS011;8162;47.104;15.432;2023-04-08T06:47:34;58.13;;;37.53;;
16115;SDS011;8162;47.104;15.432;2023-04-08T06:50:35;55.13;;;35.30;;
16115;SDS011;8162;47.104;15.432;2023-04-08T06:53:36;65.70;;;38.37;;
16115;SDS011;8162;47.104;15.432;2023-04-08T06:56:37;50.93;;;34.17;;
16115;SDS011;8162;47.104;15.432;2023-04-08T06:59:38;65.17;;;38.57;;
16115;SDS011;8162;47.104;15.432;2023-04-08T07:02:39;54.07;;;35.50;;
16115;SDS011;8162;47.104;15.432;2023-04-08T07:05:40;55.20;;;34.00;;
16115;SDS011;8162;47.104;15.432;2023-04-08T07:08:41;49.83;;;32.93;;
16115;SDS011;8162;47.104;15.432;2023-04-08T07:11:42;42.83;;;28.50;;
16115;SDS011;8162;47.104;15.432;2023-04-08T07:14:43;47.53;;;31.43;;
16115;SDS011;8162;47.104;15.432;2023-04-08T07:17:44;75.50;;;43.50;;
16115;SDS011;8162;47.104;15.432;2023-04-08T07:20:50;51.97;;;34.43;;
16115;SDS011;8162;47.104;15.432;2023-04-08T07:23:52;80.50;;;42.80;;
16115;SDS011;8162;47.104;15.432;2023-04-08T07:26:53;46.30;;;31.77;;
16115;SDS011;8162;47.104;15.432;2023-04-08T07:29:55;55.27;;;35.47;;
16115;SDS011;8162;47.104;15.432;2023-04-08T07:32:57;54.00;;;35.03;;
16115;SDS011;8162;47.104;15.432;2023-04-08T07:35:58;63.90;;;35.20;;
16115;SDS011;8162;47.104;15.432;2023-04-08T07:38:59;67.93;;;37.03;;
16115;SDS011;8162;47.104;15.432;2023-04-08T07:42:00;50.80;;;33.00;;
16115;SDS011;8162;47.104;15.432;2023-04-08T07:45:01;59.87;;;34.90;;
16115;SDS011;8162;47.104;15.432;2023-04-08T07:48:02;49.93;;;34.17;;
16115;SDS011;8162;47.104;15.432;2023-04-08T07:51:04;48.90;;;32.13;;
16115;SDS011;8162;47.104;15.432;2023-04-08T07:54:05;64.33;;;34.33;;
16115;SDS011;8162;47.104;15.432;2023-04-08T07:57:06;46.80;;;29.33;;
16115;SDS011;8162;47.104;15.432;2023-04-08T08:00:07;50.57;;;32.60;;
16115;SDS011;8162;47.104;15.432;2023-04-08T08:03:08;58.57;;;34.37;;
16115;SDS011;8162;47.104;15.432;2023-04-08T08:06:10;59.07;;;36.77;;
16115;SDS011;8162;47.104;15.432;2023-04-08T08:09:11;65.00;;;36.67;;
16115;SDS011;8162;47.104;15.432;2023-04-08T08:12:12;48.93;;;30.20;;
16115;SDS011;8162;47.104;15.432;2023-04-08T08:15:13;52.20;;;34.13;;
16115;SDS011;8162;47.104;15.432;2023-04-08T08:18:15;60.80;;;37.70;;
16115;SDS011;8162;47.104;15.432;2023-04-08T08:21:16;81.73;;;40.80;;
16115;SDS011;8162;47.104;15.432;2023-04-08T08:24:17;42.60;;;29.77;;
16115;SDS011;8162;47.104;15.432;2023-04-08T08:27:18;37.80;;;26.53;;
16115;SDS011;8162;47.104;15.432;2023-04-08T08:30:19;31.30;;;24.97;;
16115;SDS011;8162;47.104;15.432;2023-04-08T08:33:21;35.77;;;25.73;;
16115;SDS011;8162;47.104;15.432;2023-04-08T08:36:22;37.40;;;27.20;;
16115;SDS011;8162;47.104;15.432;2023-04-08T08:39:23;35.80;;;28.30;;
16115;SDS011;8162;47.104;15.432;2023-04-08T08:42:24;42.87;;;30.83;;
16115;SDS011;8162;47.104;15.432;2023-04-08T08:45:25;44.73;;;32.57;;
16115;SDS011;8162;47.104;15.432;2023-04-08T08:48:26;43.27;;;30.13;;
16115;SDS011;8162;47.104;15.432;2023-04-08T08:51:28;35.20;;;26.27;;
16115;SDS011;8162;47.104;15.432;2023-04-08T08:54:31;42.47;;;28.73;;
16115;SDS011;8162;47.104;15.432;2023-04-08T08:57:32;42.93;;;32.03;;
16115;SDS011;8162;47.104;15.432;2023-04-08T09:00:34;57.97;;;37.03;;
16115;SDS011;8162;47.104;15.432;2023-04-08T09:03:35;55.97;;;36.53;;
16115;SDS011;8162;47.104;15.432;2023-04-08T09:06:37;52.93;;;33.63;;
16115;SDS011;8162;47.104;15.432;2023-04-08T09:09:50;49.63;;;31.03;;
16115;SDS011;8162;47.104;15.432;2023-04-08T09:12:52;37.60;;;27.30;;
16115;SDS011;8162;47.104;15.432;2023-04-08T09:16:04;48.40;;;32.87;;
16115;SDS011;8162;47.104;15.432;2023-04-08T09:19:07;41.27;;;30.17;;
16115;SDS011;8162;47.104;15.432;2023-04-08T09:22:10;43.87;;;32.77;;
16115;SDS011;8162;47.104;15.432;2023-04-08T09:25:24;51.30;;;33.70;;
16115;SDS011;8162;47.104;15.432;2023-04-08T09:28:25;50.70;;;35.30;;
16115;SDS011;8162;47.104;15.432;2023-04-08T09:31:27;39.57;;;28.80;;
16115;SDS011;8162;47.104;15.432;2023-04-08T09:34:29;50.80;;;32.50;;
16115;SDS011;8162;47.104;15.432;2023-04-08T09:37:32;41.80;;;30.13;;
16115;SDS011;8162;47.104;15.432;2023-04-08T09:40:34;48.07;;;32.10;;
16115;SDS011;8162;47.104;15.432;2023-04-08T09:43:38;36.53;;;30.20;;
16115;SDS011;8162;47.104;15.432;2023-04-08T09:49:56;48.43;;;34.23;;
16115;SDS011;8162;47.104;15.432;2023-04-08T09:53:00;36.60;;;30.37;;
16115;SDS011;8162;47.104;15.432;2023-04-08T09:56:01;34.27;;;30.23;;
16115;SDS011;8162;47.104;15.432;2023-04-08T09:59:08;45.27;;;33.67;;
16115;SDS011;8162;47.104;15.432;2023-04-08T10:02:10;38.10;;;32.27;;
16115;SDS011;8162;47.104;15.432;2023-04-08T10:05:12;37.93;;;31.57;;
16115;SDS011;8162;47.104;15.432;2023-04-08T10:08:13;39.17;;;29.43;;
16115;SDS011;8162;47.104;15.432;2023-04-08T10:11:15;34.60;;;27.23;;
16115;SDS011;8162;47.104;15.432;2023-04-08T10:14:16;28.13;;;25.23;;
16115;SDS011;8162;47.104;15.432;2023-04-08T10:17:24;25.73;;;22.30;;
16115;SDS011;8162;47.104;15.432;2023-04-08T10:23:54;26.77;;;23.83;;
16115;SDS011;8162;47.104;15.432;2023-04-08T10:26:56;20.00;;;18.00;;
16115;SDS011;8162;47.104;15.432;2023-04-08T10:29:57;20.13;;;18.17;;
16115;SDS011;8162;47.104;15.432;2023-04-08T10:32:59;23.37;;;20.67;;
16115;SDS011;8162;47.104;15.432;2023-04-08T10:36:10;22.53;;;20.13;;
16115;SDS011;8162;47.104;15.432;2023-04-08T10:39:14;21.77;;;19.67;;
16115;SDS011;8162;47.104;15.432;2023-04-08T10:42:15;22.63;;;20.37;;
16115;SDS011;8162;47.104;15.432;2023-04-08T10:45:16;20.90;;;18.70;;
16115;SDS011;8162;47.104;15.432;2023-04-08T10:48:22;18.20;;;16.33;;
16115;SDS011;8162;47.104;15.432;2023-04-08T10:51:31;19.63;;;17.63;;
16115;SDS011;8162;47.104;15.432;2023-04-08T10:54:34;17.90;;;16.20;;
16115;SDS011;8162;47.104;15.432;2023-04-08T10:57:36;17.63;;;15.93;;
16115;SDS011;8162;47.104;15.432;2023-04-08T11:00:39;14.70;;;13.23;;
16115;SDS011;8162;47.104;15.432;2023-04-08T11:03:41;15.33;;;13.80;;
16115;SDS011;8162;47.104;15.432;2023-04-08T11:06:42;17.53;;;15.83;;
16115;SDS011;8162;47.104;15.432;2023-04-08T11:09:44;17.43;;;15.73;;
16115;SDS011;8162;47.104;15.432;2023-04-08T11:12:45;19.03;;;17.23;;
16115;SDS011;8162;47.104;15.432;2023-04-08T11:15:46;16.23;;;14.73;;
16115;SDS011;8162;47.104;15.432;2023-04-08T11:18:47;17.60;;;15.90;;
16115;SDS011;8162;47.104;15.432;2023-04-08T11:21:49;16.43;;;14.83;;
16115;SDS011;8162;47.104;15.432;2023-04-08T11:24:50;17.27;;;15.60;;
16115;SDS011;8162;47.104;15.432;2023-04-08T11:27:51;17.40;;;15.80;;
16115;SDS011;8162;47.104;15.432;2023-04-08T11:30:53;20.20;;;18.20;;
16115;SDS011;8162;47.104;15.432;2023-04-08T11:33:54;19.47;;;17.50;;
16115;SDS011;8162;47.104;15.432;2023-04-08T11:36:55;18.70;;;17.00;;
16115;SDS011;8162;47.104;15.432;2023-04-08T11:39:58;17.57;;;15.87;;
16115;SDS011;8162;47.104;15.432;2023-04-08T11:42:59;17.53;;;15.87;;
16115;SDS011;8162;47.104;15.432;2023-04-08T11:46:09;19.10;;;17.17;;
16115;SDS011;8162;47.104;15.432;2023-04-08T11:49:10;15.73;;;14.17;;
16115;SDS011;8162;47.104;15.432;2023-04-08T11:52:12;15.20;;;13.70;;
16115;SDS011;8162;47.104;15.432;2023-04-08T11:55:26;18.67;;;16.90;;
16115;SDS011;8162;47.104;15.432;2023-04-08T11:58:27;14.10;;;12.80;;
16115;SDS011;8162;47.104;15.432;2023-04-08T12:01:28;14.17;;;12.77;;
16115;SDS011;8162;47.104;15.432;2023-04-08T12:04:29;14.67;;;13.17;;
16115;SDS011;8162;47.104;15.432;2023-04-08T12:07:31;15.13;;;13.70;;
16115;SDS011;8162;47.104;15.432;2023-04-08T12:10:32;14.43;;;13.13;;
16115;SDS011;8162;47.104;15.432;2023-04-08T12:13:33;14.73;;;13.33;;
16115;SDS011;8162;47.104;15.432;2023-04-08T12:16:34;16.10;;;14.60;;
16115;SDS011;8162;47.104;15.432;2023-04-08T12:19:35;14.83;;;13.50;;
16115;SDS011;8162;47.104;15.432;2023-04-08T12:22:36;13.63;;;12.33;;
16115;SDS011;8162;47.104;15.432;2023-04-08T12:25:37;13.67;;;12.37;;
16115;SDS011;8162;47.104;15.432;2023-04-08T12:28:38;13.87;;;12.57;;
16115;SDS011;8162;47.104;15.432;2023-04-08T12:31:39;14.67;;;13.37;;
16115;SDS011;8162;47.104;15.432;2023-04-08T12:34:41;17.13;;;15.33;;
16115;SDS011;8162;47.104;15.432;2023-04-08T12:37:42;18.97;;;17.17;;
16115;SDS011;8162;47.104;15.432;2023-04-08T12:40:43;17.07;;;15.47;;
16115;SDS011;8162;47.104;15.432;2023-04-08T12:43:44;17.17;;;14.63;;
16115;SDS011;8162;47.104;15.432;2023-04-08T12:46:45;14.37;;;12.97;;
16115;SDS011;8162;47.104;15.432;2023-04-08T12:49:46;15.30;;;13.90;;
16115;SDS011;8162;47.104;15.432;2023-04-08T12:52:47;14.13;;;12.63;;
16115;SDS011;8162;47.104;15.432;2023-04-08T12:55:48;15.13;;;13.67;;
16115;SDS011;8162;47.104;15.432;2023-04-08T12:58:50;16.23;;;14.73;;
16115;SDS011;8162;47.104;15.432;2023-04-08T13:01:51;18.77;;;17.00;;
16115;SDS011;8162;47.104;15.432;2023-04-08T13:04:52;17.17;;;15.37;;
16115;SDS011;8162;47.104;15.432;2023-04-08T13:07:54;16.17;;;14.70;;
16115;SDS011;8162;47.104;15.432;2023-04-08T13:10:55;16.73;;;15.20;;
16115;SDS011;8162;47.104;15.432;2023-04-08T13:13:56;18.90;;;17.07;;
16115;SDS011;8162;47.104;15.432;2023-04-08T13:16:57;19.73;;;17.77;;
16115;SDS011;8162;47.104;15.432;2023-04-08T13:19:58;19.43;;;17.57;;
16115;SDS011;8162;47.104;15.432;2023-04-08T13:22:59;21.57;;;19.23;;
16115;SDS011;8162;47.104;15.432;2023-04-08T13:26:01;20.20;;;18.07;;
16115;SDS011;8162;47.104;15.432;2023-04-08T13:29:02;27.07;;;23.43;;
16115;SDS011;8162;47.104;15.432;2023-04-08T13:32:03;22.73;;;20.00;;
16115;SDS011;8162;47.104;15.432;2023-04-08T13:35:04;22.00;;;19.17;;
16115;SDS011;8162;47.104;15.432;2023-04-08T13:38:05;27.33;;;22.73;;
16115;SDS011;8162;47.104;15.432;2023-04-08T13:41:06;29.40;;;25.10;;
16115;SDS011;8162;47.104;15.432;2023-04-08T13:44:07;27.17;;;23.70;;
16115;SDS011;8162;47.104;15.432;2023-04-08T13:47:09;25.30;;;22.60;;
16115;SDS011;8162;47.104;15.432;2023-04-08T13:50:10;23.83;;;21.23;;
16115;SDS011;8162;47.104;15.432;2023-04-08T13:53:11;24.60;;;21.90;;
16115;SDS011;8162;47.104;15.432;2023-04-08T13:56:12;24.70;;;20.70;;
16115;SDS011;8162;47.104;15.432;2023-04-08T13:59:13;22.33;;;19.73;;
16115;SDS011;8162;47.104;15.432;2023-04-08T14:02:14;23.40;;;20.43;;
16115;SDS011;8162;47.104;15.432;2023-04-08T14:05:15;20.97;;;18.77;;
16115;SDS011;8162;47.104;15.432;2023-04-08T14:08:16;25.77;;;22.50;;
16115;SDS011;8162;47.104;15.432;2023-04-08T14:11:24;24.70;;;20.80;;
16115;SDS011;8162;47.104;15.432;2023-04-08T14:14:25;25.83;;;20.80;;
16115;SDS011;8162;47.104;15.432;2023-04-08T14:17:26;25.23;;;22.63;;
16115;SDS011;8162;47.104;15.432;2023-04-08T14:20:27;25.77;;;22.00;;
16115;SDS011;8162;47.104;15.432;2023-04-08T14:23:28;23.90;;;19.37;;
16115;SDS011;8162;47.104;15.432;2023-04-08T14:26:29;22.53;;;20.13;;
16115;SDS011;8162;47.104;15.432;2023-04-08T14:29:34;24.50;;;20.73;;
16115;SDS011;8162;47.104;15.432;2023-04-08T14:32:35;31.47;;;25.73;;
16115;SDS011;8162;47.104;15.432;2023-04-08T14:35:36;28.20;;;23.30;;
16115;SDS011;8162;47.104;15.432;2023-04-08T14:38:37;26.03;;;22.13;;
16115;SDS011;8162;47.104;15.432;2023-04-08T14:41:38;29.57;;;25.13;;
16115;SDS011;8162;47.104;15.432;2023-04-08T14:44:39;26.70;;;22.17;;
16115;SDS011;8162;47.104;15.432;2023-04-08T14:47:40;28.10;;;24.33;;
16115;SDS011;8162;47.104;15.432;2023-04-08T14:50:41;26.70;;;23.47;;
16115;SDS011;8162;47.104;15.432;2023-04-08T14:53:42;23.97;;;20.57;;
16115;SDS011;8162;47.104;15.432;2023-04-08T14:56:44;27.20;;;23.20;;
16115;SDS011;8162;47.104;15.432;2023-04-08T14:59:45;28.47;;;23.20;;
16115;SDS011;8162;47.104;15.432;2023-04-08T15:02:46;28.67;;;24.47;;
16115;SDS011;8162;47.104;15.432;2023-04-08T15:05:47;28.43;;;23.77;;
16115;SDS011;8162;47.104;15.432;2023-04-08T15:08:49;29.03;;;24.23;;
16115;SDS011;8162;47.104;15.432;2023-04-08T15:11:50;35.47;;;28.30;;
16115;SDS011;8162;47.104;15.432;2023-04-08T15:14:51;36.60;;;30.60;;
16115;SDS011;8162;47.104;15.432;2023-04-08T15:17:52;35.13;;;27.67;;
16115;SDS011;8162;47.104;15.432;2023-04-08T15:20:53;35.87;;;29.10;;
16115;SDS011;8162;47.104;15.432;2023-04-08T15:23:54;34.60;;;26.93;;
16115;SDS011;8162;47.104;15.432;2023-04-08T15:26:55;33.63;;;27.60;;
16115;SDS011;8162;47.104;15.432;2023-04-08T15:29:56;36.60;;;27.97;;
16115;SDS011;8162;47.104;15.432;2023-04-08T15:32:57;33.00;;;25.87;;
16115;SDS011;8162;47.104;15.432;2023-04-08T15:35:58;38.93;;;30.20;;
16115;SDS011;8162;47.104;15.432;2023-04-08T15:39:02;36.67;;;28.97;;
16115;SDS011;8162;47.104;15.432;2023-04-08T15:42:03;40.60;;;30.30;;
16115;SDS011;8162;47.104;15.432;2023-04-08T15:45:05;35.37;;;28.63;;
16115;SDS011;8162;47.104;15.432;2023-04-08T15:48:06;35.13;;;28.13;;
16115;SDS011;8162;47.104;15.432;2023-04-08T15:51:07;34.43;;;27.33;;
16115;SDS011;8162;47.104;15.432;2023-04-08T15:54:08;33.97;;;27.07;;
16115;SDS011;8162;47.104;15.432;2023-04-08T15:57:10;34.20;;;26.60;;
16115;SDS011;8162;47.104;15.432;2023-04-08T16:00:11;41.93;;;32.90;;
16115;SDS011;8162;47.104;15.432;2023-04-08T16:03:12;36.43;;;28.60;;
16115;SDS011;8162;47.104;15.432;2023-04-08T16:06:14;36.43;;;28.97;;
16115;SDS011;8162;47.104;15.432;2023-04-08T16:09:15;40.23;;;31.33;;
16115;SDS011;8162;47.104;15.432;2023-04-08T16:12:21;31.47;;;27.03;;
16115;SDS011;8162;47.104;15.432;2023-04-08T16:15:24;34.70;;;28.97;;
16115;SDS011;8162;47.104;15.432;2023-04-08T16:18:25;29.90;;;24.70;;
16115;SDS011;8162;47.104;15.432;2023-04-08T16:21:27;30.50;;;25.80;;
16115;SDS011;8162;47.104;15.432;2023-04-08T16:24:29;33.63;;;26.43;;
16115;SDS011;8162;47.104;15.432;2023-04-08T16:27:30;32.47;;;25.87;;
16115;SDS011;8162;47.104;15.432;2023-04-08T16:30:31;32.37;;;24.97;;
16115;SDS011;8162;47.104;15.432;2023-04-08T16:33:32;35.03;;;26.83;;
16115;SDS011;8162;47.104;15.432;2023-04-08T16:36:33;32.93;;;26.37;;
16115;SDS011;8162;47.104;15.432;2023-04-08T16:39:34;29.67;;;23.87;;
16115;SDS011;8162;47.104;15.432;2023-04-08T16:42:36;31.83;;;25.50;;
16115;SDS011;8162;47.104;15.432;2023-04-08T16:45:37;27.37;;;22.73;;
16115;SDS011;8162;47.104;15.432;2023-04-08T16:48:39;30.47;;;24.90;;
16115;SDS011;8162;47.104;15.432;2023-04-08T16:51:42;30.27;;;25.27;;
16115;SDS011;8162;47.104;15.432;2023-04-08T16:54:44;28.57;;;23.67;;
16115;SDS011;8162;47.104;15.432;2023-04-08T16:57:45;26.97;;;22.50;;
16115;SDS011;8162;47.104;15.432;2023-04-08T17:00:46;25.77;;;21.37;;
16115;SDS011;8162;47.104;15.432;2023-04-08T17:03:47;21.67;;;18.27;;
16115;SDS011;8162;47.104;15.432;2023-04-08T17:06:48;17.13;;;15.33;;
16115;SDS011;8162;47.104;15.432;2023-04-08T17:09:51;16.07;;;14.03;;
16115;SDS011;8162;47.104;15.432;2023-04-08T17:12:52;15.10;;;12.97;;
16115;SDS011;8162;47.104;15.432;2023-04-08T17:15:53;17.40;;;14.33;;
16115;SDS011;8162;47.104;15.432;2023-04-08T17:18:54;16.10;;;13.60;;
16115;SDS011;8162;47.104;15.432;2023-04-08T17:21:55;16.90;;;14.20;;
16115;SDS011;8162;47.104;15.432;2023-04-08T17:24:57;15.23;;;13.63;;
16115;SDS011;8162;47.104;15.432;2023-04-08T17:27:58;22.77;;;17.07;;
16115;SDS011;8162;47.104;15.432;2023-04-08T17:30:59;19.50;;;15.47;;
16115;SDS011;8162;47.104;15.432;2023-04-08T17:34:01;18.30;;;14.20;;
16115;SDS011;8162;47.104;15.432;2023-04-08T17:37:02;20.60;;;16.73;;
16115;SDS011;8162;47.104;15.432;2023-04-08T17:40:04;24.60;;;17.13;;
16115;SDS011;8162;47.104;15.432;2023-04-08T17:43:05;21.07;;;17.50;;
16115;SDS011;8162;47.104;15.432;2023-04-08T17:46:07;23.90;;;18.83;;
16115;SDS011;8162;47.104;15.432;2023-04-08T17:49:08;20.80;;;18.10;;
16115;SDS011;8162;47.104;15.432;2023-04-08T17:52:13;21.23;;;16.83;;